Time;durP1;ratioP1;P1;durP2;ratioP2;P2;SDS_P1;SDS_P2;PMS_P1;PMS_P2;Temp;Humidity;BMP_temperature;BMP_pressure;BME280_temperature;BME280_humidity;BME280_pressure;Samples;Min_cycle;Max_cycle;Signal;HPM_P1;HPM_P2
2021/08/14 20:39:31;;;;;;;11.27;6.00;;;18.80;98.30;;;;;;5151271;22;20468;-82
2021/08/14 20:41:37;;;;;;;10.37;5.07;;;18.70;98.30;;;;;;5147139;23;20421;-81
2021/08/14 20:43:53;;;;;;;11.73;6.43;;;18.70;98.30;;;;;;5147729;23;20425;-82
2021/08/14 20:46:00;;;;;;;9.47;6.03;;;18.60;98.30;;;;;;5149114;23;20424;-82
2021/08/14 20:50:43;;;;;;;16.53;6.60;;;18.60;98.30;;;;;;5127206;23;20436;-81
2021/08/14 20:52:50;;;;;;;10.30;5.70;;;18.60;98.30;;;;;;5149393;23;20431;-82
2021/08/14 20:55:10;;;;;;;10.20;6.33;;;18.60;98.30;;;;;;5149581;23;20428;-83
2021/08/14 20:57:29;;;;;;;12.13;5.80;;;18.50;98.30;;;;;;5150464;23;20489;-81
2021/08/14 21:08:56;;;;;;;13.77;7.27;;;18.30;98.30;;;;;;5098477;23;20429;-82
2021/08/14 21:11:06;;;;;;;12.30;5.93;;;18.30;98.30;;;;;;5098072;23;20696;-81
2021/08/14 21:13:30;;;;;;;14.77;6.10;;;18.30;98.30;;;;;;5098241;23;20418;-81
2021/08/14 21:15:39;;;;;;;12.47;6.90;;;18.20;98.30;;;;;;5098189;23;20456;-82
2021/08/14 22:16:16;;;;;;;16.23;7.00;;;17.50;98.30;;;;;;4963621;23;20477;-83
2021/08/14 22:21:00;;;;;;;15.97;8.40;;;17.40;98.30;;;;;;4998444;23;20949;-81
2021/08/14 22:23:04;;;;;;;15.73;8.83;;;17.40;98.30;;;;;;4998815;23;20439;-82
2021/08/14 22:25:08;;;;;;;16.53;8.90;;;17.40;98.30;;;;;;4998629;23;20430;-83
2021/08/14 22:27:11;;;;;;;17.23;7.93;;;17.30;98.30;;;;;;5022292;23;20423;-83
2021/08/14 22:29:15;;;;;;;16.90;9.10;;;17.30;98.30;;;;;;5094756;23;20479;-82
2021/08/14 22:31:21;;;;;;;14.57;9.30;;;17.30;98.30;;;;;;5095115;23;20426;-82
2021/08/14 22:33:26;;;;;;;25.43;10.87;;;17.30;98.30;;;;;;5096257;23;20919;-82
2021/08/14 22:35:29;;;;;;;19.10;8.80;;;17.20;98.30;;;;;;5088636;23;21267;-83
2021/08/14 22:37:49;;;;;;;15.33;8.73;;;17.20;98.30;;;;;;5088368;23;20442;-82
2021/08/14 22:39:52;;;;;;;15.47;10.53;;;17.20;98.30;;;;;;5088546;23;20533;-82
2021/08/14 22:41:55;;;;;;;16.70;8.30;;;17.20;98.30;;;;;;5088430;23;20445;-81
2021/08/14 22:43:58;;;;;;;13.20;7.73;;;17.20;98.30;;;;;;5117335;23;20429;-81
2021/08/14 22:46:06;;;;;;;10.80;7.90;;;17.20;98.30;;;;;;5150003;23;20413;-83
2021/08/14 22:48:10;;;;;;;16.63;9.77;;;17.20;98.30;;;;;;5151299;23;21144;-81
2021/08/14 22:50:13;;;;;;;16.10;8.03;;;17.20;98.30;;;;;;5149314;23;20504;-80
2021/08/14 22:52:16;;;;;;;14.90;8.50;;;17.10;98.30;;;;;;5141211;23;20428;-80
2021/08/14 22:54:20;;;;;;;15.33;8.27;;;17.10;98.30;;;;;;5140029;23;20851;-81
2021/08/14 22:56:24;;;;;;;14.20;7.90;;;17.10;98.30;;;;;;5148990;23;20455;-81
2021/08/14 22:58:27;;;;;;;13.57;7.67;;;17.10;98.30;;;;;;5149217;23;20449;-81
2021/08/14 23:00:30;;;;;;;13.43;7.70;;;17.00;98.30;;;;;;5140948;23;20483;-81
2021/08/14 23:02:33;;;;;;;17.40;7.70;;;17.00;98.30;;;;;;5141980;23;20930;-82
2021/08/14 23:04:36;;;;;;;14.87;7.90;;;17.10;98.30;;;;;;5141320;23;20986;-80
2021/08/14 23:06:39;;;;;;;13.37;7.57;;;17.10;98.30;;;;;;5140879;23;20428;-81
2021/08/14 23:08:42;;;;;;;15.87;7.33;;;17.00;98.30;;;;;;5140799;23;20460;-80
2021/08/14 23:10:45;;;;;;;12.60;7.23;;;17.00;98.30;;;;;;5149993;23;20421;-81
2021/08/14 23:12:49;;;;;;;10.53;6.80;;;17.00;98.30;;;;;;5140728;23;20432;-81
2021/08/14 23:14:52;;;;;;;15.40;7.67;;;17.00;98.30;;;;;;5140555;23;21284;-81
2021/08/14 23:16:58;;;;;;;12.10;6.97;;;17.00;98.30;;;;;;5140739;23;20520;-81
2021/08/14 23:19:00;;;;;;;15.70;7.70;;;17.00;98.30;;;;;;5141093;23;20779;-80
2021/08/14 23:21:03;;;;;;;15.47;7.20;;;16.90;98.30;;;;;;5142048;23;20443;-81
2021/08/14 23:23:06;;;;;;;15.50;7.80;;;16.90;98.30;;;;;;5149862;23;20754;-81
2021/08/14 23:25:11;;;;;;;17.13;7.20;;;16.90;98.30;;;;;;5141736;23;20439;-81
2021/08/14 23:27:14;;;;;;;10.60;6.80;;;16.90;98.30;;;;;;5149622;23;20427;-81
2021/08/14 23:29:18;;;;;;;14.80;6.93;;;16.90;98.30;;;;;;5141036;23;20453;-81
2021/08/14 23:31:21;;;;;;;8.67;7.00;;;16.80;98.30;;;;;;5148962;23;20802;-80
2021/08/14 23:33:27;;;;;;;12.83;7.10;;;16.80;98.30;;;;;;5149058;23;20427;-81
2021/08/14 23:35:31;;;;;;;10.53;6.07;;;16.80;98.30;;;;;;5149502;23;20421;-81
2021/08/14 23:37:33;;;;;;;13.20;5.93;;;16.80;98.30;;;;;;5140948;23;20445;-81
2021/08/14 23:39:36;;;;;;;14.47;7.13;;;16.80;98.30;;;;;;5141537;23;20443;-81
2021/08/14 23:41:39;;;;;;;14.17;7.10;;;16.80;98.30;;;;;;5141242;23;20759;-81
2021/08/14 23:43:42;;;;;;;14.30;6.87;;;16.80;98.30;;;;;;5140706;23;20437;-81
2021/08/14 23:45:45;;;;;;;14.77;7.10;;;16.80;98.30;;;;;;5150903;23;20421;-81
2021/08/14 23:47:48;;;;;;;11.93;6.23;;;16.80;98.30;;;;;;5140789;23;20813;-81
2021/08/14 23:49:53;;;;;;;11.47;6.77;;;16.90;98.30;;;;;;5140921;23;20468;-81
2021/08/14 23:51:56;;;;;;;18.60;9.50;;;16.80;98.30;;;;;;5141709;23;20429;-81
2021/08/14 23:54:00;;;;;;;14.77;7.50;;;16.80;98.30;;;;;;5140409;23;20985;-81
2021/08/14 23:56:04;;;;;;;12.93;7.57;;;16.80;98.30;;;;;;5141336;23;20471;-80
2021/08/14 23:58:07;;;;;;;17.00;6.97;;;16.80;98.30;;;;;;5141776;23;20449;-81
